Time;durP1;ratioP1;P1;durP2;ratioP2;P2;SDS_P1;SDS_P2;PMS_P1;PMS_P2;Temp;Humidity;BMP_temperature;BMP_pressure;BME280_temperature;BME280_humidity;BME280_pressure;Samples;Min_cycle;Max_cycle;Signal;HPM_P1;HPM_P2
2023/09/19 00:01:34;;;;;;;22.83;22.03;;;18.30;99.90;;;;;;5073703;28;20211;-63
2023/09/19 00:04:02;;;;;;;21.50;20.80;;;18.40;99.90;;;;;;5074549;28;20212;-64
2023/09/19 00:06:31;;;;;;;21.40;20.70;;;18.30;99.90;;;;;;5061889;28;20268;-64
2023/09/19 00:08:59;;;;;;;22.80;22.00;;;18.40;99.90;;;;;;5067888;28;20227;-64
2023/09/19 00:11:27;;;;;;;21.10;20.40;;;18.40;99.90;;;;;;5072987;28;20204;-63
2023/09/19 00:13:54;;;;;;;26.03;25.10;;;18.40;99.90;;;;;;5073195;28;20215;-64
2023/09/19 00:16:21;;;;;;;21.53;20.83;;;18.40;99.90;;;;;;5074811;28;20207;-63
2023/09/19 00:18:48;;;;;;;23.93;23.13;;;18.40;99.90;;;;;;5066331;28;20318;-63
2023/09/19 00:21:17;;;;;;;22.27;21.47;;;18.40;99.90;;;;;;5072123;28;20252;-64
2023/09/19 00:23:43;;;;;;;23.03;22.23;;;18.40;99.90;;;;;;5072232;28;20213;-63
2023/09/19 00:26:10;;;;;;;21.67;20.97;;;18.40;99.90;;;;;;5069464;28;20298;-64
2023/09/19 00:28:37;;;;;;;23.47;22.67;;;18.40;99.90;;;;;;5061490;28;20643;-63
2023/09/19 00:31:05;;;;;;;21.47;20.67;;;18.40;99.90;;;;;;5070171;28;20211;-63
2023/09/19 00:33:31;;;;;;;21.47;20.77;;;18.40;99.90;;;;;;5072190;28;20215;-63
2023/09/19 00:35:59;;;;;;;25.33;24.42;;;18.40;99.90;;;;;;5071570;28;20385;-64
2023/09/19 00:38:27;;;;;;;24.50;23.67;;;18.40;99.90;;;;;;5068635;28;20289;-62
2023/09/19 00:40:56;;;;;;;20.07;19.37;;;18.40;99.90;;;;;;5068720;28;20242;-63
2023/09/19 00:43:24;;;;;;;25.93;25.03;;;18.40;99.90;;;;;;5071532;28;20294;-64
2023/09/19 00:45:53;;;;;;;23.83;23.03;;;18.30;99.90;;;;;;5071822;28;20371;-64
2023/09/19 00:48:20;;;;;;;24.43;23.60;;;18.30;99.90;;;;;;5065111;28;20207;-64
2023/09/19 00:50:49;;;;;;;23.23;22.43;;;18.30;99.90;;;;;;5071742;28;20207;-64
2023/09/19 00:53:19;;;;;;;24.75;23.95;;;18.30;99.90;;;;;;5071730;28;20294;-62
2023/09/19 00:55:49;;;;;;;23.20;22.40;;;18.30;99.90;;;;;;5071544;28;20241;-63
2023/09/19 00:58:18;;;;;;;24.27;23.47;;;18.30;99.90;;;;;;5071510;28;20690;-63
2023/09/19 01:00:45;;;;;;;24.80;23.93;;;18.30;99.90;;;;;;5071578;28;20237;-64
2023/09/19 01:03:13;;;;;;;22.40;21.60;;;18.30;99.90;;;;;;5071926;28;20210;-63
2023/09/19 01:05:40;;;;;;;23.27;22.43;;;18.30;99.90;;;;;;5071594;28;20286;-64
2023/09/19 01:08:07;;;;;;;21.77;21.07;;;18.30;99.90;;;;;;5070166;28;20211;-64
2023/09/19 01:10:34;;;;;;;22.37;21.57;;;18.20;99.90;;;;;;5065035;28;20203;-64
2023/09/19 01:13:19;;;;;;;22.87;22.07;;;18.20;99.90;;;;;;5078021;28;20302;-62
2023/09/19 01:15:55;;;;;;;22.53;21.73;;;18.20;99.90;;;;;;5084193;28;20210;-64
2023/09/19 01:18:34;;;;;;;22.93;22.03;;;18.20;99.90;;;;;;5085277;28;20341;-64
2023/09/19 01:21:09;;;;;;;25.23;24.33;;;18.20;99.90;;;;;;5081133;28;20231;-64
2023/09/19 01:23:56;;;;;;;23.87;23.07;;;18.10;99.90;;;;;;5074928;28;20219;-64
2023/09/19 01:26:38;;;;;;;28.90;27.80;;;18.10;99.90;;;;;;5071441;28;20762;-63
2023/09/19 01:29:29;;;;;;;28.47;27.47;;;18.10;99.90;;;;;;5077183;28;20239;-64
2023/09/19 01:32:01;;;;;;;25.47;24.57;;;18.20;99.90;;;;;;5071556;28;20222;-64
2023/09/19 01:34:28;;;;;;;26.40;25.40;;;18.00;99.90;;;;;;5070942;28;20313;-64
2023/09/19 01:36:54;;;;;;;27.37;26.40;;;18.00;99.90;;;;;;5071285;28;20681;-63
2023/09/19 01:39:21;;;;;;;30.50;29.47;;;18.00;99.90;;;;;;5070974;28;20253;-64
2023/09/19 01:41:57;;;;;;;26.40;25.50;;;18.00;99.90;;;;;;5070575;28;20260;-65
2023/09/19 01:44:31;;;;;;;24.77;23.93;;;18.00;99.90;;;;;;5070558;28;20298;-64
2023/09/19 01:47:05;;;;;;;25.87;24.97;;;18.00;99.90;;;;;;5070232;28;20207;-64
2023/09/19 01:49:43;;;;;;;31.60;30.40;;;18.10;99.90;;;;;;5076521;28;20508;-64
2023/09/19 01:52:16;;;;;;;23.90;23.10;;;18.10;99.90;;;;;;5077659;28;20203;-65
2023/09/19 01:54:50;;;;;;;24.50;23.63;;;18.10;99.90;;;;;;5073302;28;20222;-63
2023/09/19 01:57:23;;;;;;;23.50;22.70;;;18.10;99.90;;;;;;5070673;28;20217;-63
2023/09/19 01:59:56;;;;;;;28.87;27.87;;;18.10;99.90;;;;;;5066667;28;20325;-64
2023/09/19 02:02:26;;;;;;;32.83;31.67;;;18.10;99.90;;;;;;5070386;28;20215;-64
2023/09/19 02:04:53;;;;;;;25.80;24.80;;;18.10;99.90;;;;;;5070656;28;20207;-64
2023/09/19 02:07:20;;;;;;;25.73;24.83;;;18.10;99.90;;;;;;5070690;28;20662;-63
2023/09/19 02:09:47;;;;;;;23.23;22.43;;;18.10;99.90;;;;;;5071483;28;20224;-65
2023/09/19 02:12:15;;;;;;;37.53;36.17;;;18.20;99.90;;;;;;5091638;28;20233;-62
2023/09/19 02:14:42;;;;;;;32.07;30.97;;;18.10;99.90;;;;;;5082771;28;20283;-63
2023/09/19 02:17:11;;;;;;;30.10;29.07;;;18.10;99.90;;;;;;5072645;28;20314;-63
2023/09/19 02:19:40;;;;;;;34.20;33.00;;;18.10;99.90;;;;;;5089746;28;20261;-67
2023/09/19 02:22:10;;;;;;;30.33;29.23;;;18.10;99.90;;;;;;5092912;28;20215;-63
2023/09/19 02:24:38;;;;;;;32.30;31.23;;;18.10;99.90;;;;;;5089893;28;20207;-63
2023/09/19 02:27:07;;;;;;;31.60;30.47;;;18.10;99.90;;;;;;5079706;28;20309;-64
2023/09/19 02:29:34;;;;;;;27.60;26.67;;;18.10;99.90;;;;;;5077313;28;20237;-62
2023/09/19 02:32:02;;;;;;;24.73;23.90;;;18.10;99.90;;;;;;5077290;28;20207;-64
2023/09/19 02:34:29;;;;;;;39.67;38.27;;;18.10;99.90;;;;;;5075736;28;20211;-65
2023/09/19 02:36:58;;;;;;;39.47;38.07;;;18.10;99.90;;;;;;5075870;28;20219;-64
2023/09/19 02:39:25;;;;;;;38.27;36.90;;;18.10;99.90;;;;;;5073411;28;20227;-64
2023/09/19 02:41:52;;;;;;;33.40;32.20;;;18.10;99.90;;;;;;5072139;28;20674;-63
2023/09/19 02:44:19;;;;;;;37.17;35.87;;;18.10;99.90;;;;;;5072574;28;20284;-64
2023/09/19 02:46:47;;;;;;;25.50;24.60;;;18.10;99.90;;;;;;5072952;28;20211;-63
2023/09/19 02:49:14;;;;;;;27.17;26.20;;;18.10;99.90;;;;;;5073488;28;20987;-64
2023/09/19 02:51:41;;;;;;;25.30;24.40;;;18.20;99.90;;;;;;5074890;28;20661;-64
2023/09/19 02:54:11;;;;;;;25.77;24.87;;;18.30;99.90;;;;;;5082321;28;20207;-64
2023/09/19 02:56:38;;;;;;;34.97;33.77;;;18.30;99.90;;;;;;5085394;28;20290;-64
2023/09/19 02:59:05;;;;;;;25.02;24.13;;;18.30;99.90;;;;;;5085914;28;20249;-64
2023/09/19 03:01:33;;;;;;;27.00;26.07;;;18.20;99.90;;;;;;5076915;28;20652;-63
2023/09/19 03:04:00;;;;;;;25.97;25.07;;;18.30;99.90;;;;;;5073228;28;20215;-63
2023/09/19 03:06:27;;;;;;;25.50;24.60;;;18.30;99.90;;;;;;5070893;28;20214;-64
2023/09/19 03:08:56;;;;;;;24.83;23.97;;;18.30;99.90;;;;;;5072630;28;20224;-63
2023/09/19 03:11:24;;;;;;;28.93;27.97;;;18.20;99.90;;;;;;5073019;28;20321;-63
2023/09/19 03:13:55;;;;;;;21.60;20.90;;;18.20;99.90;;;;;;5073408;28;20218;-65
2023/09/19 03:16:22;;;;;;;21.63;20.87;;;18.20;99.90;;;;;;5073042;28;20207;-65
2023/09/19 03:18:49;;;;;;;21.93;21.20;;;18.20;99.90;;;;;;5072343;28;20604;-63
2023/09/19 03:21:16;;;;;;;23.57;22.77;;;18.10;99.90;;;;;;5072057;28;20226;-63
2023/09/19 03:23:45;;;;;;;20.13;19.43;;;18.20;99.90;;;;;;5071497;28;20218;-63
2023/09/19 03:26:12;;;;;;;20.33;19.63;;;18.20;99.90;;;;;;5073799;28;20207;-63
2023/09/19 03:28:40;;;;;;;23.60;22.80;;;18.20;99.90;;;;;;5074243;28;20284;-64
2023/09/19 03:31:08;;;;;;;22.60;21.83;;;18.20;99.90;;;;;;5074173;28;20206;-65
2023/09/19 03:33:35;;;;;;;23.87;23.03;;;18.20;99.90;;;;;;5074263;28;20250;-64
2023/09/19 03:36:04;;;;;;;23.40;22.60;;;18.20;99.90;;;;;;5074414;28;20203;-64
2023/09/19 03:38:32;;;;;;;30.10;29.07;;;18.20;99.90;;;;;;5074166;28;20772;-64
2023/09/19 03:40:59;;;;;;;21.27;20.47;;;18.30;99.90;;;;;;5073360;28;20705;-64
2023/09/19 03:43:25;;;;;;;21.43;20.70;;;18.30;99.90;;;;;;5073297;28;20292;-65
2023/09/19 03:45:54;;;;;;;27.33;26.37;;;18.20;99.90;;;;;;5073585;28;20218;-62
2023/09/19 03:48:22;;;;;;;20.80;20.10;;;18.30;99.90;;;;;;5072118;28;20268;-63
2023/09/19 03:50:49;;;;;;;36.77;35.50;;;18.30;99.90;;;;;;5073616;28;20233;-64
2023/09/19 03:53:16;;;;;;;29.83;28.80;;;18.30;99.90;;;;;;5070658;28;20281;-63
2023/09/19 03:55:46;;;;;;;27.70;26.73;;;18.40;99.90;;;;;;5065141;28;20294;-63
2023/09/19 03:58:12;;;;;;;19.88;19.17;;;18.40;99.90;;;;;;5069359;28;20227;-63
2023/09/19 04:00:39;;;;;;;29.83;28.80;;;18.40;99.90;;;;;;5072574;28;20563;-63
2023/09/19 04:03:08;;;;;;;21.98;21.17;;;18.40;99.90;;;;;;5073567;28;20205;-64
2023/09/19 04:05:34;;;;;;;21.47;20.73;;;18.40;99.90;;;;;;5072955;28;20244;-64
2023/09/19 04:08:01;;;;;;;19.98;19.27;;;18.40;99.90;;;;;;5073347;28;20214;-63
2023/09/19 04:10:28;;;;;;;19.00;18.30;;;18.40;99.90;;;;;;5069892;28;20227;-65
2023/09/19 04:12:55;;;;;;;21.17;20.47;;;18.40;99.90;;;;;;5077047;28;20294;-63
2023/09/19 04:15:23;;;;;;;22.23;21.47;;;18.40;99.90;;;;;;5086010;28;20207;-65
2023/09/19 04:17:50;;;;;;;34.97;33.77;;;18.50;99.90;;;;;;5087586;28;20211;-62
2023/09/19 04:20:19;;;;;;;25.00;24.10;;;18.30;99.90;;;;;;5087630;28;20321;-64
2023/09/19 04:22:47;;;;;;;21.00;20.30;;;18.30;99.90;;;;;;5082947;28;20658;-63
2023/09/19 04:25:14;;;;;;;22.73;21.93;;;18.40;99.90;;;;;;5075627;28;20629;-62
2023/09/19 04:27:41;;;;;;;25.43;24.53;;;18.30;99.90;;;;;;5077352;28;20648;-63
2023/09/19 04:30:11;;;;;;;26.70;25.80;;;18.30;99.90;;;;;;5073908;28;20234;-64
2023/09/19 04:32:39;;;;;;;24.23;23.40;;;18.20;99.90;;;;;;5072730;28;20215;-62
2023/09/19 04:35:08;;;;;;;24.17;23.37;;;18.60;99.90;;;;;;5072174;28;20290;-62
2023/09/19 04:37:40;;;;;;;29.37;28.37;;;18.90;99.90;;;;;;5071905;28;20219;-62
2023/09/19 04:40:12;;;;;;;20.63;19.93;;;18.90;99.90;;;;;;5071971;28;20318;-61
2023/09/19 04:42:39;;;;;;;23.40;22.60;;;18.80;99.90;;;;;;5072010;28;20661;-62
2023/09/19 04:45:08;;;;;;;25.27;24.37;;;18.90;99.90;;;;;;5071584;28;20207;-61
2023/09/19 04:47:35;;;;;;;29.40;28.30;;;18.90;99.90;;;;;;5072223;28;20210;-62
2023/09/19 04:50:02;;;;;;;32.50;31.20;;;18.90;99.90;;;;;;5072448;28;20310;-62
2023/09/19 04:52:32;;;;;;;34.67;33.47;;;18.80;99.90;;;;;;5072395;28;20358;-62
2023/09/19 04:55:00;;;;;;;24.67;23.80;;;18.60;99.90;;;;;;5072361;28;20215;-62
2023/09/19 04:57:27;;;;;;;28.23;27.23;;;18.40;99.90;;;;;;5069758;28;20220;-61
2023/09/19 04:59:54;;;;;;;31.77;30.57;;;18.40;99.90;;;;;;5070402;28;20242;-62
2023/09/19 05:02:21;;;;;;;29.03;28.00;;;18.40;99.90;;;;;;5072121;28;20230;-62
2023/09/19 05:04:48;;;;;;;30.87;29.77;;;18.40;99.90;;;;;;5071614;28;20997;-62
2023/09/19 05:07:15;;;;;;;28.57;27.57;;;18.40;99.90;;;;;;5071731;28;20207;-63
2023/09/19 05:09:43;;;;;;;28.17;27.17;;;18.40;99.90;;;;;;5071694;28;20227;-62
2023/09/19 05:12:11;;;;;;;30.83;29.73;;;18.40;99.90;;;;;;5070989;28;20279;-63
2023/09/19 05:14:40;;;;;;;36.73;35.43;;;18.30;99.90;;;;;;5071217;28;20218;-63
2023/09/19 05:17:07;;;;;;;30.17;29.07;;;18.30;99.90;;;;;;5068021;28;20212;-62
2023/09/19 05:19:35;;;;;;;31.37;30.27;;;18.40;99.90;;;;;;5070935;28;20231;-62
2023/09/19 05:22:03;;;;;;;34.43;33.23;;;18.40;99.90;;;;;;5072120;28;20249;-62
2023/09/19 05:24:31;;;;;;;24.50;23.70;;;18.40;99.90;;;;;;5073889;28;20725;-62
2023/09/19 05:26:58;;;;;;;32.60;31.50;;;18.40;99.90;;;;;;5072205;28;20310;-62
2023/09/19 05:29:26;;;;;;;29.43;28.43;;;18.40;99.90;;;;;;5068044;28;20311;-64
2023/09/19 05:31:54;;;;;;;33.70;32.50;;;18.50;99.90;;;;;;5070621;28;20214;-61
2023/09/19 05:34:21;;;;;;;27.43;26.43;;;18.40;99.90;;;;;;5070327;28;20207;-62
2023/09/19 05:36:49;;;;;;;30.90;29.80;;;18.40;99.90;;;;;;5071147;28;20233;-65
2023/09/19 05:39:15;;;;;;;27.23;26.27;;;18.30;99.90;;;;;;5070814;28;20239;-62
2023/09/19 05:41:42;;;;;;;31.17;30.07;;;18.40;99.90;;;;;;5071065;28;20738;-62
2023/09/19 05:44:09;;;;;;;28.57;27.57;;;18.30;99.90;;;;;;5066423;28;20295;-63
2023/09/19 05:46:37;;;;;;;33.97;32.77;;;18.40;99.90;;;;;;5071022;28;20211;-63
2023/09/19 05:49:04;;;;;;;29.80;28.73;;;18.50;99.90;;;;;;5069869;28;20239;-62
2023/09/19 05:51:31;;;;;;;30.30;29.20;;;18.40;99.90;;;;;;5070860;28;20389;-63
2023/09/19 05:53:58;;;;;;;31.07;29.97;;;18.40;99.90;;;;;;5070371;28;20209;-64
2023/09/19 05:56:25;;;;;;;34.40;33.17;;;18.40;99.90;;;;;;5067165;28;20229;-62
2023/09/19 05:58:53;;;;;;;32.17;30.90;;;18.40;99.90;;;;;;5070931;28;20657;-62
2023/09/19 06:01:20;;;;;;;32.80;31.63;;;18.40;99.90;;;;;;5066678;28;20237;-62
2023/09/19 06:03:48;;;;;;;30.33;29.23;;;18.30;99.90;;;;;;5061199;28;20218;-62
2023/09/19 06:06:15;;;;;;;34.97;33.73;;;18.30;99.90;;;;;;5050557;28;20375;-62
2023/09/19 06:08:44;;;;;;;27.40;26.47;;;18.30;99.90;;;;;;5054680;28;20762;-62
2023/09/19 06:11:11;;;;;;;24.00;23.20;;;18.40;99.90;;;;;;5059840;28;20211;-63
2023/09/19 06:13:39;;;;;;;27.63;26.67;;;18.40;99.90;;;;;;5067298;28;20297;-63
2023/09/19 06:16:06;;;;;;;31.07;29.97;;;18.40;99.90;;;;;;5068331;28;20318;-62
2023/09/19 06:18:33;;;;;;;34.27;33.07;;;18.40;99.90;;;;;;5062837;28;20344;-62
2023/09/19 06:21:05;;;;;;;23.77;22.93;;;18.50;99.90;;;;;;5070529;28;20265;-62
2023/09/19 06:23:32;;;;;;;26.13;25.23;;;18.40;99.90;;;;;;5066974;28;20212;-63
2023/09/19 06:25:58;;;;;;;29.17;28.17;;;18.40;99.90;;;;;;5069091;28;20211;-62
2023/09/19 06:28:27;;;;;;;21.67;20.90;;;18.40;99.90;;;;;;5070538;28;20322;-62
2023/09/19 06:30:54;;;;;;;17.90;17.23;;;18.50;99.90;;;;;;5066262;28;20203;-62
2023/09/19 06:33:22;;;;;;;17.67;16.97;;;18.40;99.90;;;;;;5069168;28;20211;-63
2023/09/19 06:35:49;;;;;;;17.80;17.20;;;18.40;99.90;;;;;;5061310;28;20303;-62
2023/09/19 06:38:19;;;;;;;21.43;20.67;;;18.40;99.90;;;;;;5065557;28;20681;-62
2023/09/19 06:40:45;;;;;;;19.67;19.02;;;18.40;99.90;;;;;;5068477;28;20673;-63
2023/09/19 06:43:14;;;;;;;12.18;11.77;;;18.40;99.90;;;;;;5066363;28;20619;-63
2023/09/19 06:45:41;;;;;;;13.00;12.60;;;18.50;99.90;;;;;;5068968;28;20211;-62
2023/09/19 06:48:09;;;;;;;18.87;18.20;;;18.50;99.90;;;;;;5062300;28;20211;-64
2023/09/19 06:50:36;;;;;;;27.17;26.23;;;18.50;99.90;;;;;;5070012;28;20222;-63
2023/09/19 06:53:04;;;;;;;17.73;17.13;;;18.60;99.90;;;;;;5065236;28;20203;-62
2023/09/19 06:55:34;;;;;;;14.37;13.87;;;18.60;99.90;;;;;;5069977;28;20211;-63
2023/09/19 06:58:01;;;;;;;13.70;13.20;;;18.70;99.90;;;;;;5068766;28;20215;-62
2023/09/19 07:00:28;;;;;;;13.30;12.90;;;18.60;99.90;;;;;;5071976;28;20336;-63
2023/09/19 07:03:00;;;;;;;12.90;12.50;;;18.70;99.90;;;;;;5073926;28;20254;-62
2023/09/19 07:05:28;;;;;;;15.07;14.57;;;18.80;99.90;;;;;;5069754;28;20673;-62
2023/09/19 07:07:56;;;;;;;14.37;13.87;;;18.90;99.90;;;;;;5066742;28;20204;-64
2023/09/19 07:10:25;;;;;;;13.73;13.23;;;18.90;99.90;;;;;;5071078;28;20796;-62
2023/09/19 07:12:58;;;;;;;14.10;13.60;;;19.00;99.90;;;;;;5063923;28;20215;-63
2023/09/19 07:15:25;;;;;;;14.80;14.30;;;19.10;99.90;;;;;;5074209;28;20215;-63
2023/09/19 07:17:53;;;;;;;15.00;14.50;;;19.20;99.90;;;;;;5080329;28;20211;-63
2023/09/19 07:20:19;;;;;;;15.40;14.90;;;19.20;99.90;;;;;;5073222;28;20598;-62
2023/09/19 07:22:47;;;;;;;16.77;16.17;;;19.10;99.90;;;;;;5073992;28;20223;-63
2023/09/19 07:25:14;;;;;;;20.77;20.03;;;19.10;99.90;;;;;;5071021;28;20235;-63
2023/09/19 07:27:41;;;;;;;17.37;16.77;;;19.20;99.90;;;;;;5078240;28;20278;-62
2023/09/19 07:30:11;;;;;;;16.67;15.97;;;19.10;99.90;;;;;;5090618;28;20593;-62
2023/09/19 07:32:38;;;;;;;14.90;14.40;;;19.10;99.90;;;;;;5083864;28;20271;-63
2023/09/19 07:35:06;;;;;;;15.40;14.90;;;19.30;99.90;;;;;;5088474;28;20294;-62
2023/09/19 07:37:33;;;;;;;16.50;15.90;;;19.40;99.90;;;;;;5084992;28;20208;-62
2023/09/19 07:40:00;;;;;;;15.07;14.57;;;19.50;99.90;;;;;;5076172;28;20717;-62
2023/09/19 07:42:27;;;;;;;15.60;15.10;;;19.60;99.90;;;;;;5074168;28;20234;-63
2023/09/19 07:44:54;;;;;;;16.60;16.00;;;19.70;99.90;;;;;;5072072;28;20285;-63
2023/09/19 07:47:22;;;;;;;15.07;14.57;;;19.80;99.90;;;;;;5075596;28;20271;-61
2023/09/19 07:49:49;;;;;;;16.27;15.67;;;19.90;99.90;;;;;;5074769;28;20268;-64
2023/09/19 07:52:16;;;;;;;16.03;15.43;;;19.90;99.90;;;;;;5077203;28;20290;-63
2023/09/19 07:54:44;;;;;;;15.67;15.17;;;20.10;99.90;;;;;;5074371;28;20256;-63
2023/09/19 07:57:11;;;;;;;18.87;18.23;;;20.30;99.90;;;;;;5069632;28;20318;-64
2023/09/19 07:59:42;;;;;;;19.03;18.40;;;20.40;99.90;;;;;;5065054;28;20243;-63
2023/09/19 08:02:09;;;;;;;19.13;18.43;;;20.60;99.90;;;;;;5070053;28;20302;-64
2023/09/19 08:04:37;;;;;;;17.38;16.77;;;20.70;99.90;;;;;;5070957;28;20707;-63
2023/09/19 08:07:04;;;;;;;18.43;17.83;;;20.80;99.90;;;;;;5074316;28;20218;-62
2023/09/19 08:09:34;;;;;;;18.60;18.00;;;21.00;99.90;;;;;;5070442;28;20278;-62
2023/09/19 08:12:03;;;;;;;18.50;17.90;;;21.00;99.90;;;;;;5073329;28;20214;-63
2023/09/19 08:14:30;;;;;;;17.98;17.38;;;21.20;99.90;;;;;;5067022;28;20748;-63
2023/09/19 08:16:59;;;;;;;19.00;18.38;;;21.20;99.90;;;;;;5070315;28;20376;-63
2023/09/19 08:19:28;;;;;;;15.87;15.33;;;21.40;99.90;;;;;;5070351;28;20258;-63
2023/09/19 08:21:58;;;;;;;14.50;14.00;;;21.50;99.90;;;;;;5070353;28;20227;-62
2023/09/19 08:24:27;;;;;;;17.00;16.42;;;21.60;99.90;;;;;;5073098;28;20577;-63
2023/09/19 08:26:54;;;;;;;17.77;17.17;;;21.70;99.90;;;;;;5070090;28;20211;-62
2023/09/19 08:29:21;;;;;;;18.13;17.52;;;21.80;99.90;;;;;;5069810;28;20605;-63
2023/09/19 08:31:49;;;;;;;18.10;17.50;;;21.90;99.90;;;;;;5073121;28;20203;-62
2023/09/19 08:34:16;;;;;;;17.07;16.47;;;21.70;99.90;;;;;;5069901;28;20666;-63
2023/09/19 08:36:44;;;;;;;29.08;27.88;;;21.80;99.90;;;;;;5072344;28;20206;-63
2023/09/19 08:39:13;;;;;;;17.35;16.75;;;21.70;99.90;;;;;;5071681;28;20303;-63
2023/09/19 08:41:40;;;;;;;17.13;16.53;;;21.50;99.90;;;;;;5074091;28;20219;-64
2023/09/19 08:44:08;;;;;;;23.33;22.53;;;21.50;99.90;;;;;;5073695;28;20209;-64
2023/09/19 08:46:38;;;;;;;23.50;22.65;;;21.60;99.90;;;;;;5073642;28;20623;-64
2023/09/19 08:49:08;;;;;;;16.57;15.97;;;21.40;99.90;;;;;;5071517;28;20215;-64
2023/09/19 08:51:44;;;;;;;17.85;17.15;;;21.20;99.90;;;;;;5074025;28;20200;-63
2023/09/19 08:54:22;;;;;;;15.43;14.93;;;21.00;99.90;;;;;;5073217;28;20223;-63
2023/09/19 08:56:51;;;;;;;15.23;14.73;;;20.70;99.90;;;;;;5073677;28;20214;-63
2023/09/19 08:59:24;;;;;;;14.85;14.35;;;20.60;99.90;;;;;;5068857;28;20321;-62
2023/09/19 09:01:53;;;;;;;16.07;15.47;;;20.60;99.90;;;;;;5064971;28;20326;-62
2023/09/19 09:04:20;;;;;;;15.80;15.30;;;20.70;99.90;;;;;;5067411;28;20211;-63
2023/09/19 09:06:50;;;;;;;15.23;14.73;;;20.70;99.90;;;;;;5067575;28;20299;-63
2023/09/19 09:09:19;;;;;;;15.95;15.43;;;20.80;99.90;;;;;;5069650;28;20304;-63
2023/09/19 09:11:46;;;;;;;15.48;14.90;;;20.90;99.90;;;;;;5068236;28;20207;-63
2023/09/19 09:14:14;;;;;;;15.65;15.15;;;20.90;99.90;;;;;;5071734;28;20217;-63
2023/09/19 09:16:41;;;;;;;16.33;15.73;;;20.90;99.90;;;;;;5070492;28;20673;-63
2023/09/19 09:19:11;;;;;;;16.05;15.48;;;20.90;99.90;;;;;;5071232;28;20222;-63
2023/09/19 09:21:38;;;;;;;16.73;16.13;;;20.90;99.90;;;;;;5068781;28;20703;-62
2023/09/19 09:24:33;;;;;;;18.00;17.40;;;20.80;99.90;;;;;;5074942;28;20202;-62
2023/09/19 09:27:02;;;;;;;16.43;15.90;;;20.90;99.90;;;;;;5067442;28;20290;-63
2023/09/19 09:29:48;;;;;;;17.90;17.25;;;20.90;99.90;;;;;;5069623;28;20314;-64
2023/09/19 09:32:23;;;;;;;18.67;17.97;;;20.90;99.90;;;;;;5070903;28;20223;-63
2023/09/19 09:34:53;;;;;;;34.70;33.13;;;20.80;99.90;;;;;;5069999;28;20229;-63
2023/09/19 09:37:20;;;;;;;31.03;29.57;;;20.60;99.90;;;;;;5061315;28;20298;-62
2023/09/19 09:39:58;;;;;;;22.83;22.03;;;20.50;99.90;;;;;;5069340;28;20250;-62
2023/09/19 09:42:33;;;;;;;16.38;15.77;;;20.40;99.90;;;;;;5071778;28;20211;-63
2023/09/19 09:45:17;;;;;;;16.65;16.05;;;20.40;99.90;;;;;;5069771;28;20195;-62
2023/09/19 09:47:54;;;;;;;16.97;16.37;;;20.40;99.90;;;;;;5072442;28;20207;-62
2023/09/19 09:50:44;;;;;;;16.30;15.70;;;20.30;99.90;;;;;;5070633;28;20211;-63
2023/09/19 09:53:28;;;;;;;16.48;15.88;;;20.30;99.90;;;;;;5068918;28;20205;-63
2023/09/19 09:56:05;;;;;;;17.40;16.80;;;20.80;99.90;;;;;;5067213;28;20215;-62
2023/09/19 09:58:32;;;;;;;15.30;14.75;;;20.80;99.90;;;;;;5069389;28;20223;-63
2023/09/19 10:01:08;;;;;;;15.47;14.97;;;20.90;99.90;;;;;;5070650;28;20582;-62
2023/09/19 10:03:41;;;;;;;15.05;14.50;;;20.90;99.90;;;;;;5068791;28;20553;-63
2023/09/19 10:06:25;;;;;;;16.75;16.15;;;20.80;99.90;;;;;;5069229;28;20264;-63
2023/09/19 10:09:10;;;;;;;19.17;18.47;;;20.80;99.90;;;;;;5067743;28;20238;-63
2023/09/19 10:11:42;;;;;;;21.23;20.53;;;21.00;99.90;;;;;;5058379;28;20200;-62
2023/09/19 10:14:12;;;;;;;20.77;20.05;;;21.40;99.90;;;;;;5067349;28;20204;-63
2023/09/19 10:16:42;;;;;;;18.87;18.23;;;21.50;99.90;;;;;;5070853;28;20229;-62
2023/09/19 10:19:12;;;;;;;21.33;20.60;;;21.60;99.90;;;;;;5070598;28;20207;-63
2023/09/19 10:21:40;;;;;;;20.07;19.37;;;21.70;99.90;;;;;;5070542;28;20572;-63
2023/09/19 10:24:09;;;;;;;19.33;18.63;;;21.80;99.90;;;;;;5069514;28;20227;-63
2023/09/19 10:26:39;;;;;;;19.15;18.45;;;22.10;99.90;;;;;;5071345;28;20197;-63
2023/09/19 10:29:09;;;;;;;20.47;19.77;;;22.40;99.90;;;;;;5069683;28;20241;-63
2023/09/19 10:31:40;;;;;;;20.17;19.48;;;22.70;99.90;;;;;;5070581;28;20250;-63
2023/09/19 10:34:09;;;;;;;19.83;19.13;;;22.80;99.90;;;;;;5069504;28;20195;-63
2023/09/19 10:36:37;;;;;;;20.30;19.60;;;23.00;99.90;;;;;;5075050;28;20205;-63
2023/09/19 10:39:08;;;;;;;20.77;20.08;;;23.20;99.90;;;;;;5078455;28;20730;-63
2023/09/19 10:41:37;;;;;;;16.95;16.35;;;23.50;99.90;;;;;;5077901;28;20292;-63
2023/09/19 10:44:06;;;;;;;21.92;21.17;;;23.80;99.90;;;;;;5079248;28;20254;-64
2023/09/19 10:46:33;;;;;;;23.33;22.52;;;24.20;99.90;;;;;;5077811;28;20211;-63
2023/09/19 10:49:00;;;;;;;23.35;22.55;;;24.40;99.90;;;;;;5071974;28;20309;-63
2023/09/19 10:51:32;;;;;;;19.40;18.73;;;24.60;99.90;;;;;;5071322;28;20666;-62
2023/09/19 10:54:06;;;;;;;24.60;23.60;;;24.90;99.90;;;;;;5074574;28;20198;-62
2023/09/19 10:56:36;;;;;;;18.65;18.02;;;24.90;99.90;;;;;;5073215;28;20203;-63
2023/09/19 10:59:09;;;;;;;22.42;21.63;;;24.90;99.90;;;;;;5072336;28;20235;-62
2023/09/19 11:01:47;;;;;;;28.00;27.02;;;25.00;99.90;;;;;;5072905;28;20289;-63
2023/09/19 11:04:25;;;;;;;26.38;25.48;;;25.10;99.90;;;;;;5072246;28;20255;-64
2023/09/19 11:07:08;;;;;;;23.65;22.77;;;25.30;99.90;;;;;;5074447;28;20207;-64
2023/09/19 11:09:50;;;;;;;29.05;28.05;;;25.30;99.90;;;;;;5072888;28;20222;-62
2023/09/19 11:12:49;;;;;;;48.45;46.72;;;25.40;99.90;;;;;;5071429;28;20446;-64
2023/09/19 11:16:04;;;;;;;32.30;31.17;;;24.90;99.90;;;;;;5073940;28;20230;-62
2023/09/19 11:18:55;;;;;;;34.22;33.03;;;24.90;99.90;;;;;;5070780;28;20567;-64
2023/09/19 11:21:58;;;;;;;39.00;37.63;;;24.90;99.90;;;;;;5070375;28;20230;-64
2023/09/19 11:24:32;;;;;;;36.42;35.15;;;25.00;99.90;;;;;;5011192;28;20255;-63
2023/09/19 11:27:17;;;;;;;36.72;35.42;;;24.90;99.90;;;;;;5012533;28;20208;-64
2023/09/19 11:29:44;;;;;;;101.57;94.70;;;24.90;99.90;;;;;;5010938;28;20611;-65
2023/09/19 11:32:12;;;;;;;38.05;36.72;;;24.80;99.90;;;;;;5011145;28;20197;-65
2023/09/19 11:34:50;;;;;;;49.67;47.85;;;24.70;99.90;;;;;;5009275;28;20284;-62
2023/09/19 11:38:16;;;;;;;42.03;40.50;;;24.60;99.90;;;;;;5011430;28;20204;-63
2023/09/19 11:40:55;;;;;;;75.00;71.20;;;24.30;99.90;;;;;;5011179;28;20216;-65
2023/09/19 11:43:35;;;;;;;26.98;26.00;;;23.80;99.90;;;;;;5011634;28;20640;-64
2023/09/19 11:46:05;;;;;;;28.38;27.38;;;23.50;99.90;;;;;;5007914;28;20212;-63
2023/09/19 11:48:33;;;;;;;23.45;22.65;;;23.90;99.90;;;;;;5007587;28;20787;-64
2023/09/19 11:51:07;;;;;;;28.65;27.65;;;24.20;99.90;;;;;;5007897;28;20201;-63
2023/09/19 11:53:35;;;;;;;28.35;27.35;;;24.50;99.90;;;;;;5009859;28;20271;-63
2023/09/19 11:56:06;;;;;;;27.98;27.02;;;24.60;99.90;;;;;;5059705;28;20210;-63
2023/09/19 11:58:34;;;;;;;30.73;29.63;;;24.80;99.90;;;;;;5071979;28;20233;-63
2023/09/19 12:01:08;;;;;;;28.35;27.38;;;24.80;99.90;;;;;;5072921;28;20196;-62
2023/09/19 12:03:41;;;;;;;22.02;21.27;;;24.80;99.90;;;;;;5070878;28;20215;-63
2023/09/19 12:06:14;;;;;;;30.92;29.83;;;24.80;99.90;;;;;;5070799;28;20195;-63
2023/09/19 12:08:43;;;;;;;23.45;22.63;;;24.70;99.90;;;;;;5072451;28;20234;-64
2023/09/19 12:11:17;;;;;;;24.85;23.98;;;24.80;99.90;;;;;;5072326;28;20257;-64
2023/09/19 12:13:46;;;;;;;34.70;33.47;;;25.00;99.90;;;;;;5070092;28;20214;-62
2023/09/19 12:16:15;;;;;;;28.90;27.90;;;25.20;99.90;;;;;;5072261;28;20609;-64
2023/09/19 12:18:43;;;;;;;33.95;32.58;;;25.30;99.90;;;;;;5069517;28;20239;-63
2023/09/19 12:21:31;;;;;;;41.13;39.45;;;25.30;99.90;;;;;;5070138;28;20780;-63
2023/09/19 12:24:05;;;;;;;26.27;25.35;;;25.30;99.90;;;;;;5071346;28;20223;-64
2023/09/19 12:26:43;;;;;;;24.83;23.98;;;25.30;99.90;;;;;;5072353;28;20755;-65
2023/09/19 12:29:18;;;;;;;27.30;26.38;;;25.50;99.90;;;;;;5070864;28;21626;-63
2023/09/19 12:31:50;;;;;;;27.23;26.27;;;25.50;99.90;;;;;;5071493;28;20206;-64
2023/09/19 12:34:19;;;;;;;30.23;29.17;;;25.60;99.90;;;;;;5071833;28;20195;-62
2023/09/19 12:36:48;;;;;;;23.70;22.88;;;25.70;99.90;;;;;;5074580;28;20271;-64
2023/09/19 12:39:25;;;;;;;23.17;22.38;;;25.80;99.90;;;;;;5080291;28;20245;-62
2023/09/19 12:41:54;;;;;;;25.98;25.08;;;26.00;99.90;;;;;;5075935;28;20597;-63